首页
METAR-TAF:

METAR-TAF

机场 :

Brazoria County Airport

Angleton / Lake Jackson, 得克萨斯州, 美国

纬度: 29-06-55N, 经度: 095-27-47W, 海拔: 7米

当前天气观测

该预报发布于15小时和36分钟前的00:53 UTC
风速3节,风向南转西南
温度 28°C
湿度 89%
气压 1015 hPa
能見度: 16.1公里
天空无云
小雨

METAR: KLBX 210053Z AUTO 20003KT 10SM -RA CLR 28/26 A2997 RMK AO2 SLP148 P0000 T02830261

时间: 11:29 (16:29 UTC)

预报

该预报发布于59分钟前的15:30 UTC
预报有效从21日的 16点(UTC)到 22日的 12点(UTC)
风速3节,风向多变
能見度: 10公里
散云层高于2500英尺
散云层高于5000英尺
多云层高于25000英尺
附近有阵雨
短暂存在
从 21日的 16点(UTC)到 21日的 18点(UTC)
能見度: 8.0公里
散云层高于2500英尺
多云层高于3500英尺, 积雨云.
雷暴, 雨
从 21日的 1800点(UTC)
风速7节,风向
能見度: 10公里
散云层高于3500英尺, 积雨云.
多云层高于5000英尺
附近有雷暴
从 21日的 2200点(UTC)
风速5节,风向
能見度: 10公里
少量云层高于3500英尺
散云层高于5000英尺
多云层高于25000英尺
从 22日的 1000点(UTC)
风速3节,风向多变
能見度: 10公里
散云层高于2500英尺
散云层高于5000英尺
附近有阵雨,

TAF: KLBX 211530Z 2116/2212 VRB03KT P6SM VCSH SCT025 SCT050 BKN250 TEMPO 2116/2118 5SM TSRA SCT025 BKN035CB FM211800 17007KT P6SM VCTS SCT035CB BKN050 FM212200 17005KT P6SM FEW035 SCT050 BKN250 FM221000 VRB03KT P6SM VCSH SCT025 SCT050 AMD NOT SKED

超过4000个机场的气象观测和天气预报(METAR&TAF报告)。

可查询的气象台以黄色和红色小点在地图上表示。

将鼠标移到小点上方,可查看气象台名称。

然后点击查看天气观测和预报。

如需切换地图:点击带黑十字的绿色按钮放大地图;点击带横线的绿色按钮缩小地图;或者点击绿色箭头查看邻近地区的地图。


METAR-TAF: